sensor_id;sensor_type;location;lat;lon;timestamp;temperature;humidity
67093;SHT31;54011;50.772;7.730;2022-07-12T00:02:17;13.82;86.98
67093;SHT31;54011;50.772;7.730;2022-07-12T00:04:43;13.67;87.79
67093;SHT31;54011;50.772;7.730;2022-07-12T00:07:08;13.68;87.48
67093;SHT31;54011;50.772;7.730;2022-07-12T00:09:33;13.60;87.80
67093;SHT31;54011;50.772;7.730;2022-07-12T00:11:59;13.57;87.73
67093;SHT31;54011;50.772;7.730;2022-07-12T00:14:25;13.51;87.56
67093;SHT31;54011;50.772;7.730;2022-07-12T00:16:53;13.54;87.25
67093;SHT31;54011;50.772;7.730;2022-07-12T00:19:18;13.36;88.18
67093;SHT31;54011;50.772;7.730;2022-07-12T00:21:43;13.32;87.98
67093;SHT31;54011;50.772;7.730;2022-07-12T00:24:09;13.40;87.61
67093;SHT31;54011;50.772;7.730;2022-07-12T00:26:34;13.28;87.83
67093;SHT31;54011;50.772;7.730;2022-07-12T00:29:00;13.24;87.78
67093;SHT31;54011;50.772;7.730;2022-07-12T00:31:25;13.23;88.49
67093;SHT31;54011;50.772;7.730;2022-07-12T00:33:51;13.28;87.55
67093;SHT31;54011;50.772;7.730;2022-07-12T00:36:17;13.03;88.39
67093;SHT31;54011;50.772;7.730;2022-07-12T00:38:42;13.02;88.22
67093;SHT31;54011;50.772;7.730;2022-07-12T00:41:08;12.89;88.52
67093;SHT31;54011;50.772;7.730;2022-07-12T00:43:33;12.81;88.53
67093;SHT31;54011;50.772;7.730;2022-07-12T00:45:58;12.72;88.59
67093;SHT31;54011;50.772;7.730;2022-07-12T00:48:24;12.68;88.41
67093;SHT31;54011;50.772;7.730;2022-07-12T00:50:50;12.72;88.39
67093;SHT31;54011;50.772;7.730;2022-07-12T00:53:15;12.62;88.72
67093;SHT31;54011;50.772;7.730;2022-07-12T00:55:43;12.69;88.13
67093;SHT31;54011;50.772;7.730;2022-07-12T00:58:09;12.68;88.97
67093;SHT31;54011;50.772;7.730;2022-07-12T01:00:35;12.57;89.51
67093;SHT31;54011;50.772;7.730;2022-07-12T01:03:02;12.58;89.14
67093;SHT31;54011;50.772;7.730;2022-07-12T01:05:28;12.58;88.71
67093;SHT31;54011;50.772;7.730;2022-07-12T01:07:54;12.64;88.52
67093;SHT31;54011;50.772;7.730;2022-07-12T01:10:20;12.52;89.37
67093;SHT31;54011;50.772;7.730;2022-07-12T01:12:46;12.55;89.02
67093;SHT31;54011;50.772;7.730;2022-07-12T01:15:12;12.55;88.49
67093;SHT31;54011;50.772;7.730;2022-07-12T01:17:39;12.42;88.82
67093;SHT31;54011;50.772;7.730;2022-07-12T01:20:05;12.34;89.48
67093;SHT31;54011;50.772;7.730;2022-07-12T01:22:36;12.31;89.64
67093;SHT31;54011;50.772;7.730;2022-07-12T01:25:02;12.45;89.20
67093;SHT31;54011;50.772;7.730;2022-07-12T01:27:29;12.47;88.81
67093;SHT31;54011;50.772;7.730;2022-07-12T01:29:55;12.28;88.81
67093;SHT31;54011;50.772;7.730;2022-07-12T01:32:20;12.31;88.86
67093;SHT31;54011;50.772;7.730;2022-07-12T01:34:56;12.26;89.08
67093;SHT31;54011;50.772;7.730;2022-07-12T01:37:24;12.17;89.71
67093;SHT31;54011;50.772;7.730;2022-07-12T01:39:53;12.17;89.51
67093;SHT31;54011;50.772;7.730;2022-07-12T01:42:20;12.23;88.81
67093;SHT31;54011;50.772;7.730;2022-07-12T01:44:45;12.20;88.96
67093;SHT31;54011;50.772;7.730;2022-07-12T01:47:11;12.10;89.38
67093;SHT31;54011;50.772;7.730;2022-07-12T01:49:37;12.14;88.49
67093;SHT31;54011;50.772;7.730;2022-07-12T01:52:02;12.12;88.52
67093;SHT31;54011;50.772;7.730;2022-07-12T01:54:28;12.14;88.49
67093;SHT31;54011;50.772;7.730;2022-07-12T01:56:54;12.12;88.08
67093;SHT31;54011;50.772;7.730;2022-07-12T01:59:20;12.08;89.06
67093;SHT31;54011;50.772;7.730;2022-07-12T02:01:46;12.10;89.83
67093;SHT31;54011;50.772;7.730;2022-07-12T02:04:15;12.10;88.92
67093;SHT31;54011;50.772;7.730;2022-07-12T02:06:42;12.21;88.93
67093;SHT31;54011;50.772;7.730;2022-07-12T02:09:09;12.26;89.01
67093;SHT31;54011;50.772;7.730;2022-07-12T02:11:34;12.07;89.62
67093;SHT31;54011;50.772;7.730;2022-07-12T02:13:59;11.96;90.07
67093;SHT31;54011;50.772;7.730;2022-07-12T02:16:25;11.85;90.40
67093;SHT31;54011;50.772;7.730;2022-07-12T02:18:50;11.83;89.83
67093;SHT31;54011;50.772;7.730;2022-07-12T02:21:16;11.85;89.71
67093;SHT31;54011;50.772;7.730;2022-07-12T02:23:42;11.82;89.84
67093;SHT31;54011;50.772;7.730;2022-07-12T02:26:07;11.75;90.06
67093;SHT31;54011;50.772;7.730;2022-07-12T02:28:33;11.72;90.31
67093;SHT31;54011;50.772;7.730;2022-07-12T02:30:58;11.66;90.17
67093;SHT31;54011;50.772;7.730;2022-07-12T02:33:24;11.62;90.26
67093;SHT31;54011;50.772;7.730;2022-07-12T02:35:49;11.56;90.17
67093;SHT31;54011;50.772;7.730;2022-07-12T02:38:15;11.62;89.68
67093;SHT31;54011;50.772;7.730;2022-07-12T02:40:41;11.66;89.44
67093;SHT31;54011;50.772;7.730;2022-07-12T02:43:36;11.54;89.47
67093;SHT31;54011;50.772;7.730;2022-07-12T02:46:06;11.54;89.36
67093;SHT31;54011;50.772;7.730;2022-07-12T02:48:32;11.40;89.67
67093;SHT31;54011;50.772;7.730;2022-07-12T02:51:02;11.48;89.04
67093;SHT31;54011;50.772;7.730;2022-07-12T02:53:28;11.51;89.34
67093;SHT31;54011;50.772;7.730;2022-07-12T02:55:53;11.43;89.75
67093;SHT31;54011;50.772;7.730;2022-07-12T02:58:19;11.40;89.87
67093;SHT31;54011;50.772;7.730;2022-07-12T03:00:44;11.36;89.71
67093;SHT31;54011;50.772;7.730;2022-07-12T03:03:11;11.34;89.65
67093;SHT31;54011;50.772;7.730;2022-07-12T03:05:38;11.38;89.32
67093;SHT31;54011;50.772;7.730;2022-07-12T03:08:04;11.31;89.98
67093;SHT31;54011;50.772;7.730;2022-07-12T03:10:30;11.22;89.97
67093;SHT31;54011;50.772;7.730;2022-07-12T03:12:55;11.28;89.64
67093;SHT31;54011;50.772;7.730;2022-07-12T03:15:20;11.32;89.25
67093;SHT31;54011;50.772;7.730;2022-07-12T03:17:46;11.24;89.38
67093;SHT31;54011;50.772;7.730;2022-07-12T03:20:12;11.24;89.28
67093;SHT31;54011;50.772;7.730;2022-07-12T03:22:43;11.24;89.51
67093;SHT31;54011;50.772;7.730;2022-07-12T03:25:09;11.14;89.64
67093;SHT31;54011;50.772;7.730;2022-07-12T03:27:35;11.11;89.75
67093;SHT31;54011;50.772;7.730;2022-07-12T03:30:01;11.14;89.71
67093;SHT31;54011;50.772;7.730;2022-07-12T03:32:26;11.17;89.76
67093;SHT31;54011;50.772;7.730;2022-07-12T03:34:52;11.25;89.25
67093;SHT31;54011;50.772;7.730;2022-07-12T03:37:19;11.18;89.28
67093;SHT31;54011;50.772;7.730;2022-07-12T03:43:00;11.27;89.05
67093;SHT31;54011;50.772;7.730;2022-07-12T03:45:25;11.27;89.25
67093;SHT31;54011;50.772;7.730;2022-07-12T03:47:51;11.39;89.30
67093;SHT31;54011;50.772;7.730;2022-07-12T03:50:16;11.39;89.51
67093;SHT31;54011;50.772;7.730;2022-07-12T03:52:42;11.40;88.61
67093;SHT31;54011;50.772;7.730;2022-07-12T03:55:09;11.43;88.55
67093;SHT31;54011;50.772;7.730;2022-07-12T03:57:35;11.36;88.05
67093;SHT31;54011;50.772;7.730;2022-07-12T04:00:00;11.14;89.03
67093;SHT31;54011;50.772;7.730;2022-07-12T04:02:26;11.19;88.85
67093;SHT31;54011;50.772;7.730;2022-07-12T04:04:51;11.19;88.61
67093;SHT31;54011;50.772;7.730;2022-07-12T04:07:17;11.17;88.70
67093;SHT31;54011;50.772;7.730;2022-07-12T04:09:43;11.25;88.46
67093;SHT31;54011;50.772;7.730;2022-07-12T04:12:09;11.35;88.43
67093;SHT31;54011;50.772;7.730;2022-07-12T04:14:34;11.38;88.11
67093;SHT31;54011;50.772;7.730;2022-07-12T04:17:00;11.28;88.19
67093;SHT31;54011;50.772;7.730;2022-07-12T04:19:25;11.11;88.81
67093;SHT31;54011;50.772;7.730;2022-07-12T04:21:56;11.10;88.58
67093;SHT31;54011;50.772;7.730;2022-07-12T04:24:22;10.98;88.94
67093;SHT31;54011;50.772;7.730;2022-07-12T04:26:48;10.98;88.95
67093;SHT31;54011;50.772;7.730;2022-07-12T04:29:15;10.98;89.21
67093;SHT31;54011;50.772;7.730;2022-07-12T04:31:40;10.93;89.60
67093;SHT31;54011;50.772;7.730;2022-07-12T04:34:06;11.05;89.23
67093;SHT31;54011;50.772;7.730;2022-07-12T04:36:31;11.05;89.59
67093;SHT31;54011;50.772;7.730;2022-07-12T04:38:58;11.15;89.41
67093;SHT31;54011;50.772;7.730;2022-07-12T04:41:23;11.27;89.22
67093;SHT31;54011;50.772;7.730;2022-07-12T04:43:48;11.24;89.22
67093;SHT31;54011;50.772;7.730;2022-07-12T04:46:14;11.32;89.15
67093;SHT31;54011;50.772;7.730;2022-07-12T04:48:39;11.45;88.80
67093;SHT31;54011;50.772;7.730;2022-07-12T04:51:04;11.56;89.10
67093;SHT31;54011;50.772;7.730;2022-07-12T04:53:30;11.59;88.52
67093;SHT31;54011;50.772;7.730;2022-07-12T04:55:56;11.55;88.66
67093;SHT31;54011;50.772;7.730;2022-07-12T04:58:23;11.28;90.08
67093;SHT31;54011;50.772;7.730;2022-07-12T05:00:49;11.32;89.73
67093;SHT31;54011;50.772;7.730;2022-07-12T05:03:14;11.46;89.48
67093;SHT31;54011;50.772;7.730;2022-07-12T05:05:40;11.52;89.02
67093;SHT31;54011;50.772;7.730;2022-07-12T05:08:05;11.59;88.81
67093;SHT31;54011;50.772;7.730;2022-07-12T05:10:30;11.61;89.20
67093;SHT31;54011;50.772;7.730;2022-07-12T05:12:56;11.51;90.59
67093;SHT31;54011;50.772;7.730;2022-07-12T05:15:21;11.72;90.44
67093;SHT31;54011;50.772;7.730;2022-07-12T05:17:47;11.90;89.92
67093;SHT31;54011;50.772;7.730;2022-07-12T05:20:12;12.01;89.61
67093;SHT31;54011;50.772;7.730;2022-07-12T05:22:38;12.14;89.47
67093;SHT31;54011;50.772;7.730;2022-07-12T05:25:03;12.20;89.41
67093;SHT31;54011;50.772;7.730;2022-07-12T05:27:30;12.44;88.68
67093;SHT31;54011;50.772;7.730;2022-07-12T05:29:55;12.41;88.52
67093;SHT31;54011;50.772;7.730;2022-07-12T05:32:21;12.44;88.78
67093;SHT31;54011;50.772;7.730;2022-07-12T05:34:47;12.52;87.68
67093;SHT31;54011;50.772;7.730;2022-07-12T05:37:12;12.66;87.35
67093;SHT31;54011;50.772;7.730;2022-07-12T05:39:37;12.68;87.46
67093;SHT31;54011;50.772;7.730;2022-07-12T05:42:03;12.71;87.57
67093;SHT31;54011;50.772;7.730;2022-07-12T05:44:28;12.84;87.32
67093;SHT31;54011;50.772;7.730;2022-07-12T05:46:54;12.96;87.21
67093;SHT31;54011;50.772;7.730;2022-07-12T05:49:19;13.03;87.19
67093;SHT31;54011;50.772;7.730;2022-07-12T05:51:44;13.00;87.38
67093;SHT31;54011;50.772;7.730;2022-07-12T05:54:28;13.06;87.41
67093;SHT31;54011;50.772;7.730;2022-07-12T05:56:53;13.23;86.77
67093;SHT31;54011;50.772;7.730;2022-07-12T05:59:19;13.42;86.26
67093;SHT31;54011;50.772;7.730;2022-07-12T06:01:44;13.48;86.10
67093;SHT31;54011;50.772;7.730;2022-07-12T06:04:10;13.78;85.45
67093;SHT31;54011;50.772;7.730;2022-07-12T06:06:35;13.82;85.17
67093;SHT31;54011;50.772;7.730;2022-07-12T06:09:01;13.97;84.84
67093;SHT31;54011;50.772;7.730;2022-07-12T06:11:27;14.12;85.15
67093;SHT31;54011;50.772;7.730;2022-07-12T06:13:53;14.28;84.21
67093;SHT31;54011;50.772;7.730;2022-07-12T06:16:18;14.25;84.40
67093;SHT31;54011;50.772;7.730;2022-07-12T06:18:43;14.33;83.88
67093;SHT31;54011;50.772;7.730;2022-07-12T06:21:09;14.40;83.85
67093;SHT31;54011;50.772;7.730;2022-07-12T06:23:34;14.56;83.16
67093;SHT31;54011;50.772;7.730;2022-07-12T06:25:59;14.70;82.96
67093;SHT31;54011;50.772;7.730;2022-07-12T06:28:25;14.76;83.30
67093;SHT31;54011;50.772;7.730;2022-07-12T06:30:50;14.86;82.96
67093;SHT31;54011;50.772;7.730;2022-07-12T06:33:15;14.74;83.38
67093;SHT31;54011;50.772;7.730;2022-07-12T06:35:41;14.90;83.07
67093;SHT31;54011;50.772;7.730;2022-07-12T06:38:06;15.21;82.57
67093;SHT31;54011;50.772;7.730;2022-07-12T06:40:32;15.24;82.58
67093;SHT31;54011;50.772;7.730;2022-07-12T06:42:57;15.49;82.10
67093;SHT31;54011;50.772;7.730;2022-07-12T06:45:23;15.55;81.40
67093;SHT31;54011;50.772;7.730;2022-07-12T06:47:48;15.59;81.66
67093;SHT31;54011;50.772;7.730;2022-07-12T06:50:14;15.70;81.55
67093;SHT31;54011;50.772;7.730;2022-07-12T06:52:39;15.83;81.84
67093;SHT31;54011;50.772;7.730;2022-07-12T06:55:07;16.00;82.00
67093;SHT31;54011;50.772;7.730;2022-07-12T06:57:32;16.14;81.88
67093;SHT31;54011;50.772;7.730;2022-07-12T06:59:59;16.28;81.47
67093;SHT31;54011;50.772;7.730;2022-07-12T07:02:24;16.53;81.11
67093;SHT31;54011;50.772;7.730;2022-07-12T07:04:50;16.82;80.70
67093;SHT31;54011;50.772;7.730;2022-07-12T07:07:16;16.92;80.72
67093;SHT31;54011;50.772;7.730;2022-07-12T07:09:42;17.22;80.35
67093;SHT31;54011;50.772;7.730;2022-07-12T07:12:10;17.50;79.42
67093;SHT31;54011;50.772;7.730;2022-07-12T07:14:36;17.78;78.35
67093;SHT31;54011;50.772;7.730;2022-07-12T07:17:01;17.97;77.85
67093;SHT31;54011;50.772;7.730;2022-07-12T07:19:27;18.28;77.17
67093;SHT31;54011;50.772;7.730;2022-07-12T07:21:53;18.49;75.87
67093;SHT31;54011;50.772;7.730;2022-07-12T07:24:24;18.65;76.54
67093;SHT31;54011;50.772;7.730;2022-07-12T07:26:49;18.77;76.52
67093;SHT31;54011;50.772;7.730;2022-07-12T07:29:14;18.83;75.73
67093;SHT31;54011;50.772;7.730;2022-07-12T07:31:59;19.06;75.90
67093;SHT31;54011;50.772;7.730;2022-07-12T07:34:25;18.96;75.76
67093;SHT31;54011;50.772;7.730;2022-07-12T07:36:51;19.13;75.36
67093;SHT31;54011;50.772;7.730;2022-07-12T07:39:16;19.36;73.63
67093;SHT31;54011;50.772;7.730;2022-07-12T07:41:42;19.61;74.00
67093;SHT31;54011;50.772;7.730;2022-07-12T07:44:07;19.76;71.77
67093;SHT31;54011;50.772;7.730;2022-07-12T07:46:33;19.89;71.54
67093;SHT31;54011;50.772;7.730;2022-07-12T07:48:58;20.08;70.42
67093;SHT31;54011;50.772;7.730;2022-07-12T07:51:23;20.17;71.84
67093;SHT31;54011;50.772;7.730;2022-07-12T07:53:49;20.50;69.85
67093;SHT31;54011;50.772;7.730;2022-07-12T07:56:14;20.45;69.62
67093;SHT31;54011;50.772;7.730;2022-07-12T07:58:39;20.37;69.09
67093;SHT31;54011;50.772;7.730;2022-07-12T08:01:05;20.68;69.40
67093;SHT31;54011;50.772;7.730;2022-07-12T08:03:31;21.33;66.28
67093;SHT31;54011;50.772;7.730;2022-07-12T08:05:56;21.43;65.07
67093;SHT31;54011;50.772;7.730;2022-07-12T08:08:24;21.83;63.57
67093;SHT31;54011;50.772;7.730;2022-07-12T08:10:50;22.01;63.54
67093;SHT31;54011;50.772;7.730;2022-07-12T08:13:16;22.20;62.96
67093;SHT31;54011;50.772;7.730;2022-07-12T08:15:41;21.41;63.92
67093;SHT31;54011;50.772;7.730;2022-07-12T08:18:07;21.80;63.66
67093;SHT31;54011;50.772;7.730;2022-07-12T08:20:32;22.08;61.59
67093;SHT31;54011;50.772;7.730;2022-07-12T08:22:58;21.67;63.05
67093;SHT31;54011;50.772;7.730;2022-07-12T08:25:23;21.83;63.62
67093;SHT31;54011;50.772;7.730;2022-07-12T08:27:49;21.72;63.16
67093;SHT31;54011;50.772;7.730;2022-07-12T08:30:14;21.96;62.93
67093;SHT31;54011;50.772;7.730;2022-07-12T08:32:46;21.80;62.19
67093;SHT31;54011;50.772;7.730;2022-07-12T08:35:13;22.07;61.88
67093;SHT31;54011;50.772;7.730;2022-07-12T08:37:40;22.22;61.01
67093;SHT31;54011;50.772;7.730;2022-07-12T08:40:06;22.63;58.90
67093;SHT31;54011;50.772;7.730;2022-07-12T08:42:32;22.56;59.30
67093;SHT31;54011;50.772;7.730;2022-07-12T08:44:58;23.03;57.38
67093;SHT31;54011;50.772;7.730;2022-07-12T08:47:23;23.06;57.55
67093;SHT31;54011;50.772;7.730;2022-07-12T08:50:12;23.28;57.90
67093;SHT31;54011;50.772;7.730;2022-07-12T08:52:43;23.50;57.06
67093;SHT31;54011;50.772;7.730;2022-07-12T08:55:20;23.30;56.30
67093;SHT31;54011;50.772;7.730;2022-07-12T08:57:45;23.67;55.10
67093;SHT31;54011;50.772;7.730;2022-07-12T09:00:11;23.97;54.93
67093;SHT31;54011;50.772;7.730;2022-07-12T09:02:57;24.01;54.55
67093;SHT31;54011;50.772;7.730;2022-07-12T09:05:24;24.15;53.46
67093;SHT31;54011;50.772;7.730;2022-07-12T09:07:50;23.82;54.64
67093;SHT31;54011;50.772;7.730;2022-07-12T09:10:16;23.51;56.00
67093;SHT31;54011;50.772;7.730;2022-07-12T09:12:42;24.09;54.67
67093;SHT31;54011;50.772;7.730;2022-07-12T09:15:19;24.13;54.03
67093;SHT31;54011;50.772;7.730;2022-07-12T09:20:32;25.46;50.94
67093;SHT31;54011;50.772;7.730;2022-07-12T09:23:00;25.24;50.97
67093;SHT31;54011;50.772;7.730;2022-07-12T09:25:26;24.57;52.76
67093;SHT31;54011;50.772;7.730;2022-07-12T09:27:54;23.92;54.30
67093;SHT31;54011;50.772;7.730;2022-07-12T09:30:22;24.06;53.69
67093;SHT31;54011;50.772;7.730;2022-07-12T09:35:35;25.04;50.48
67093;SHT31;54011;50.772;7.730;2022-07-12T09:38:19;25.86;47.87
67093;SHT31;54011;50.772;7.730;2022-07-12T09:40:45;26.34;48.16
67093;SHT31;54011;50.772;7.730;2022-07-12T09:43:11;26.07;47.66
67093;SHT31;54011;50.772;7.730;2022-07-12T09:45:39;26.94;46.25
67093;SHT31;54011;50.772;7.730;2022-07-12T09:48:05;26.52;47.11
67093;SHT31;54011;50.772;7.730;2022-07-12T09:50:35;27.03;47.66
67093;SHT31;54011;50.772;7.730;2022-07-12T09:53:02;27.08;45.62
67093;SHT31;54011;50.772;7.730;2022-07-12T09:55:30;27.22;45.89
67093;SHT31;54011;50.772;7.730;2022-07-12T09:58:00;27.25;45.18
67093;SHT31;54011;50.772;7.730;2022-07-12T10:00:27;27.00;45.93
67093;SHT31;54011;50.772;7.730;2022-07-12T10:03:02;27.36;45.77
67093;SHT31;54011;50.772;7.730;2022-07-12T10:05:29;27.33;45.44
67093;SHT31;54011;50.772;7.730;2022-07-12T10:07:55;27.63;45.81
67093;SHT31;54011;50.772;7.730;2022-07-12T10:10:21;28.21;44.59
67093;SHT31;54011;50.772;7.730;2022-07-12T10:12:46;29.07;42.37
67093;SHT31;54011;50.772;7.730;2022-07-12T10:15:18;28.68;42.80
67093;SHT31;54011;50.772;7.730;2022-07-12T10:17:52;28.09;43.68
67093;SHT31;54011;50.772;7.730;2022-07-12T10:20:26;28.12;43.57
67093;SHT31;54011;50.772;7.730;2022-07-12T10:22:55;26.72;45.86
67093;SHT31;54011;50.772;7.730;2022-07-12T10:25:32;26.81;46.33
67093;SHT31;54011;50.772;7.730;2022-07-12T10:27:58;27.18;45.49
67093;SHT31;54011;50.772;7.730;2022-07-12T10:30:24;28.01;43.58
67093;SHT31;54011;50.772;7.730;2022-07-12T10:32:55;28.04;43.20
67093;SHT31;54011;50.772;7.730;2022-07-12T10:35:25;28.02;43.46
67093;SHT31;54011;50.772;7.730;2022-07-12T10:38:16;27.87;43.32
67093;SHT31;54011;50.772;7.730;2022-07-12T10:40:46;27.74;44.84
67093;SHT31;54011;50.772;7.730;2022-07-12T10:43:16;27.73;43.55
67093;SHT31;54011;50.772;7.730;2022-07-12T10:45:42;27.80;42.94
67093;SHT31;54011;50.772;7.730;2022-07-12T10:48:28;28.28;43.96
67093;SHT31;54011;50.772;7.730;2022-07-12T10:50:57;28.68;42.76
67093;SHT31;54011;50.772;7.730;2022-07-12T10:53:32;28.28;43.24
67093;SHT31;54011;50.772;7.730;2022-07-12T10:58:42;28.93;40.04
67093;SHT31;54011;50.772;7.730;2022-07-12T11:01:16;28.53;41.42
67093;SHT31;54011;50.772;7.730;2022-07-12T11:03:44;28.62;41.72
67093;SHT31;54011;50.772;7.730;2022-07-12T11:06:15;29.45;40.54
67093;SHT31;54011;50.772;7.730;2022-07-12T11:11:18;30.30;37.25
67093;SHT31;54011;50.772;7.730;2022-07-12T11:13:44;29.27;39.41
67093;SHT31;54011;50.772;7.730;2022-07-12T11:16:09;29.85;39.14
67093;SHT31;54011;50.772;7.730;2022-07-12T11:18:35;29.78;39.16
67093;SHT31;54011;50.772;7.730;2022-07-12T11:21:02;30.19;37.33
67093;SHT31;54011;50.772;7.730;2022-07-12T11:23:29;30.52;36.86
67093;SHT31;54011;50.772;7.730;2022-07-12T11:25:55;29.59;38.00
67093;SHT31;54011;50.772;7.730;2022-07-12T11:28:21;30.26;37.91
67093;SHT31;54011;50.772;7.730;2022-07-12T11:30:49;30.67;36.44
67093;SHT31;54011;50.772;7.730;2022-07-12T11:33:15;30.61;35.96
67093;SHT31;54011;50.772;7.730;2022-07-12T11:35:43;30.17;36.87
67093;SHT31;54011;50.772;7.730;2022-07-12T11:38:09;30.76;36.43
67093;SHT31;54011;50.772;7.730;2022-07-12T11:40:35;30.81;35.69
67093;SHT31;54011;50.772;7.730;2022-07-12T11:43:01;29.88;36.41
67093;SHT31;54011;50.772;7.730;2022-07-12T11:45:29;30.81;35.25
67093;SHT31;54011;50.772;7.730;2022-07-12T11:47:57;31.34;36.57
67093;SHT31;54011;50.772;7.730;2022-07-12T11:50:23;31.39;34.72
67093;SHT31;54011;50.772;7.730;2022-07-12T11:52:48;31.36;34.60
67093;SHT31;54011;50.772;7.730;2022-07-12T11:55:14;30.73;34.64
67093;SHT31;54011;50.772;7.730;2022-07-12T11:57:39;30.40;35.77
67093;SHT31;54011;50.772;7.730;2022-07-12T12:02:43;31.65;34.52
67093;SHT31;54011;50.772;7.730;2022-07-12T12:05:09;31.77;33.18
67093;SHT31;54011;50.772;7.730;2022-07-12T12:07:35;31.45;33.87
67093;SHT31;54011;50.772;7.730;2022-07-12T12:10:04;31.67;32.64
67093;SHT31;54011;50.772;7.730;2022-07-12T12:15:07;31.97;33.41
67093;SHT31;54011;50.772;7.730;2022-07-12T12:17:34;32.72;31.86
67093;SHT31;54011;50.772;7.730;2022-07-12T12:20:16;32.12;31.21
67093;SHT31;54011;50.772;7.730;2022-07-12T12:22:43;32.25;32.18
67093;SHT31;54011;50.772;7.730;2022-07-12T12:25:09;31.89;32.13
67093;SHT31;54011;50.772;7.730;2022-07-12T12:27:43;32.16;31.87
67093;SHT31;54011;50.772;7.730;2022-07-12T12:30:09;32.31;31.61
67093;SHT31;54011;50.772;7.730;2022-07-12T12:35:10;33.93;30.13
67093;SHT31;54011;50.772;7.730;2022-07-12T12:37:36;33.53;29.84
67093;SHT31;54011;50.772;7.730;2022-07-12T12:40:03;34.31;29.43
67093;SHT31;54011;50.772;7.730;2022-07-12T12:42:28;34.29;28.52
67093;SHT31;54011;50.772;7.730;2022-07-12T12:44:54;33.45;29.13
67093;SHT31;54011;50.772;7.730;2022-07-12T12:47:19;32.89;29.41
67093;SHT31;54011;50.772;7.730;2022-07-12T12:49:57;33.62;28.90
67093;SHT31;54011;50.772;7.730;2022-07-12T12:52:24;33.05;30.75
67093;SHT31;54011;50.772;7.730;2022-07-12T12:54:51;33.80;29.47
67093;SHT31;54011;50.772;7.730;2022-07-12T12:57:17;34.32;28.48
67093;SHT31;54011;50.772;7.730;2022-07-12T12:59:43;34.90;28.70
67093;SHT31;54011;50.772;7.730;2022-07-12T13:02:08;34.31;28.34
67093;SHT31;54011;50.772;7.730;2022-07-12T13:04:35;34.21;29.65
67093;SHT31;54011;50.772;7.730;2022-07-12T13:07:01;32.12;31.79
67093;SHT31;54011;50.772;7.730;2022-07-12T13:09:27;33.57;30.04
67093;SHT31;54011;50.772;7.730;2022-07-12T13:11:56;33.67;29.15
67093;SHT31;54011;50.772;7.730;2022-07-12T13:14:22;33.46;30.91
67093;SHT31;54011;50.772;7.730;2022-07-12T13:16:47;33.39;31.88
67093;SHT31;54011;50.772;7.730;2022-07-12T13:19:13;32.43;31.51
67093;SHT31;54011;50.772;7.730;2022-07-12T13:21:39;34.42;28.71
67093;SHT31;54011;50.772;7.730;2022-07-12T13:24:05;33.98;29.68
67093;SHT31;54011;50.772;7.730;2022-07-12T13:26:30;33.12;30.30
67093;SHT31;54011;50.772;7.730;2022-07-12T13:28:56;34.28;28.66
67093;SHT31;54011;50.772;7.730;2022-07-12T13:31:21;34.07;30.34
67093;SHT31;54011;50.772;7.730;2022-07-12T13:33:47;33.36;30.15
67093;SHT31;54011;50.772;7.730;2022-07-12T13:36:13;33.77;30.50
67093;SHT31;54011;50.772;7.730;2022-07-12T13:38:39;34.11;28.97
67093;SHT31;54011;50.772;7.730;2022-07-12T13:41:05;34.02;28.44
67093;SHT31;54011;50.772;7.730;2022-07-12T13:43:31;34.65;28.72
67093;SHT31;54011;50.772;7.730;2022-07-12T13:45:56;33.66;28.96
67093;SHT31;54011;50.772;7.730;2022-07-12T13:48:22;33.83;30.54
67093;SHT31;54011;50.772;7.730;2022-07-12T13:50:47;34.14;28.93
67093;SHT31;54011;50.772;7.730;2022-07-12T13:53:14;34.75;28.66
67093;SHT31;54011;50.772;7.730;2022-07-12T13:55:41;35.41;27.66
67093;SHT31;54011;50.772;7.730;2022-07-12T13:58:07;34.70;28.69
67093;SHT31;54011;50.772;7.730;2022-07-12T14:00:33;34.88;28.07
67093;SHT31;54011;50.772;7.730;2022-07-12T14:02:58;33.59;29.85
67093;SHT31;54011;50.772;7.730;2022-07-12T14:05:24;34.24;29.57
67093;SHT31;54011;50.772;7.730;2022-07-12T14:07:50;34.07;29.45
67093;SHT31;54011;50.772;7.730;2022-07-12T14:10:15;34.90;29.27
67093;SHT31;54011;50.772;7.730;2022-07-12T14:12:41;35.61;27.00
67093;SHT31;54011;50.772;7.730;2022-07-12T14:15:08;34.98;28.17
67093;SHT31;54011;50.772;7.730;2022-07-12T14:20:03;32.47;31.27
67093;SHT31;54011;50.772;7.730;2022-07-12T14:22:29;33.16;30.27
67093;SHT31;54011;50.772;7.730;2022-07-12T14:24:55;33.97;28.86
67093;SHT31;54011;50.772;7.730;2022-07-12T14:27:21;34.48;29.01
67093;SHT31;54011;50.772;7.730;2022-07-12T14:29:47;34.55;28.37
67093;SHT31;54011;50.772;7.730;2022-07-12T14:32:12;35.16;27.03
67093;SHT31;54011;50.772;7.730;2022-07-12T14:34:38;34.76;27.27
67093;SHT31;54011;50.772;7.730;2022-07-12T14:37:03;35.51;27.29
67093;SHT31;54011;50.772;7.730;2022-07-12T14:39:29;33.05;30.02
67093;SHT31;54011;50.772;7.730;2022-07-12T14:41:54;34.14;28.12
67093;SHT31;54011;50.772;7.730;2022-07-12T14:44:21;33.77;28.53
67093;SHT31;54011;50.772;7.730;2022-07-12T14:46:46;33.83;28.24
67093;SHT31;54011;50.772;7.730;2022-07-12T14:49:11;33.93;28.89
67093;SHT31;54011;50.772;7.730;2022-07-12T14:51:37;33.91;29.55
67093;SHT31;54011;50.772;7.730;2022-07-12T14:54:02;34.27;30.48
67093;SHT31;54011;50.772;7.730;2022-07-12T14:56:28;32.78;31.30
67093;SHT31;54011;50.772;7.730;2022-07-12T14:58:53;32.60;32.30
67093;SHT31;54011;50.772;7.730;2022-07-12T15:01:19;33.15;30.67
67093;SHT31;54011;50.772;7.730;2022-07-12T15:03:44;33.08;30.86
67093;SHT31;54011;50.772;7.730;2022-07-12T15:06:09;34.10;29.36
67093;SHT31;54011;50.772;7.730;2022-07-12T15:08:35;34.53;28.60
67093;SHT31;54011;50.772;7.730;2022-07-12T15:11:03;35.07;27.61
67093;SHT31;54011;50.772;7.730;2022-07-12T15:13:30;34.61;28.27
67093;SHT31;54011;50.772;7.730;2022-07-12T15:15:57;35.20;28.28
67093;SHT31;54011;50.772;7.730;2022-07-12T15:18:22;34.28;29.62
67093;SHT31;54011;50.772;7.730;2022-07-12T15:20:50;34.24;28.85
67093;SHT31;54011;50.772;7.730;2022-07-12T15:23:15;33.46;29.87
67093;SHT31;54011;50.772;7.730;2022-07-12T15:25:40;33.32;29.32
67093;SHT31;54011;50.772;7.730;2022-07-12T15:28:06;33.91;30.04
67093;SHT31;54011;50.772;7.730;2022-07-12T15:30:32;34.47;27.92
67093;SHT31;54011;50.772;7.730;2022-07-12T15:32:57;34.51;28.54
67093;SHT31;54011;50.772;7.730;2022-07-12T15:35:23;35.00;27.79
67093;SHT31;54011;50.772;7.730;2022-07-12T15:37:48;35.14;27.74
67093;SHT31;54011;50.772;7.730;2022-07-12T15:40:14;33.84;28.61
67093;SHT31;54011;50.772;7.730;2022-07-12T15:42:39;33.80;29.08
67093;SHT31;54011;50.772;7.730;2022-07-12T15:45:06;33.40;29.54
67093;SHT31;54011;50.772;7.730;2022-07-12T15:47:32;33.11;29.75
67093;SHT31;54011;50.772;7.730;2022-07-12T15:49:57;32.86;29.88
67093;SHT31;54011;50.772;7.730;2022-07-12T15:52:23;31.92;31.68